Terminal Aerodrome Forecast
Issued by NWS Caribou, ME

Home | Current Version | Previous Version | Text Only | Print | Product List | Glossary On
Versions: 1 2 3 4 5 6 7 8 9 10 11 12 13 14 15 16 17 18 19
000
FTUS41 KCAR 211503 AAB
TAFCAR
TAF AMD
KCAR 211503Z 2115/2212 17010KT 2SM BR OVC002
     FM211700 22008KT P6SM VCSH OVC020 WS020/24040KT
     FM212200 29007KT P6SM BKN030=

USA.gov is the U.S. government's official web portal to all federal, state and local government web resources and services.